sensor_id;sensor_type;location;lat;lon;timestamp;P1;durP1;ratioP1;P2;durP2;ratioP2
51806;SDS011;37865;51.304;9.536;2023-09-08T00:01:45;13.35;;;10.02;;
51806;SDS011;37865;51.304;9.536;2023-09-08T00:04:10;11.93;;;9.93;;
51806;SDS011;37865;51.304;9.536;2023-09-08T00:06:36;12.05;;;10.60;;
51806;SDS011;37865;51.304;9.536;2023-09-08T00:09:02;13.10;;;10.05;;
51806;SDS011;37865;51.304;9.536;2023-09-08T00:11:28;12.20;;;9.35;;
51806;SDS011;37865;51.304;9.536;2023-09-08T00:13:53;16.52;;;9.75;;
51806;SDS011;37865;51.304;9.536;2023-09-08T00:16:19;13.55;;;11.55;;
51806;SDS011;37865;51.304;9.536;2023-09-08T00:18:44;12.25;;;10.55;;
51806;SDS011;37865;51.304;9.536;2023-09-08T00:21:10;11.93;;;10.50;;
51806;SDS011;37865;51.304;9.536;2023-09-08T00:23:35;11.63;;;9.63;;
51806;SDS011;37865;51.304;9.536;2023-09-08T00:26:00;10.05;;;9.00;;
51806;SDS011;37865;51.304;9.536;2023-09-08T00:28:26;17.10;;;10.15;;
51806;SDS011;37865;51.304;9.536;2023-09-08T00:30:51;13.27;;;9.90;;
51806;SDS011;37865;51.304;9.536;2023-09-08T00:33:16;12.80;;;11.52;;
51806;SDS011;37865;51.304;9.536;2023-09-08T00:35:48;12.55;;;9.98;;
51806;SDS011;37865;51.304;9.536;2023-09-08T00:38:13;11.00;;;9.77;;
51806;SDS011;37865;51.304;9.536;2023-09-08T00:40:38;11.57;;;9.52;;
51806;SDS011;37865;51.304;9.536;2023-09-08T00:43:04;13.18;;;10.13;;
51806;SDS011;37865;51.304;9.536;2023-09-08T00:45:29;12.70;;;11.00;;
51806;SDS011;37865;51.304;9.536;2023-09-08T00:47:55;12.07;;;10.88;;
51806;SDS011;37865;51.304;9.536;2023-09-08T00:50:20;11.95;;;10.27;;
51806;SDS011;37865;51.304;9.536;2023-09-08T00:52:46;15.95;;;8.93;;
51806;SDS011;37865;51.304;9.536;2023-09-08T00:55:11;18.90;;;9.70;;
51806;SDS011;37865;51.304;9.536;2023-09-08T00:57:37;12.13;;;10.45;;
51806;SDS011;37865;51.304;9.536;2023-09-08T01:00:02;15.10;;;10.23;;
51806;SDS011;37865;51.304;9.536;2023-09-08T01:02:30;11.05;;;9.95;;
51806;SDS011;37865;51.304;9.536;2023-09-08T01:04:57;23.80;;;10.80;;
51806;SDS011;37865;51.304;9.536;2023-09-08T01:07:24;11.40;;;9.68;;
51806;SDS011;37865;51.304;9.536;2023-09-08T01:09:51;12.05;;;9.30;;
51806;SDS011;37865;51.304;9.536;2023-09-08T01:12:17;9.52;;;8.52;;
51806;SDS011;37865;51.304;9.536;2023-09-08T01:14:44;12.18;;;10.18;;
51806;SDS011;37865;51.304;9.536;2023-09-08T01:17:09;14.18;;;10.95;;
51806;SDS011;37865;51.304;9.536;2023-09-08T01:19:34;9.95;;;8.95;;
51806;SDS011;37865;51.304;9.536;2023-09-08T01:22:21;17.25;;;11.40;;
51806;SDS011;37865;51.304;9.536;2023-09-08T01:27:37;14.43;;;10.98;;
51806;SDS011;37865;51.304;9.536;2023-09-08T01:30:06;13.77;;;10.18;;
51806;SDS011;37865;51.304;9.536;2023-09-08T01:32:32;11.25;;;9.23;;
51806;SDS011;37865;51.304;9.536;2023-09-08T01:34:59;11.57;;;10.38;;
51806;SDS011;37865;51.304;9.536;2023-09-08T01:37:25;14.15;;;10.20;;
51806;SDS011;37865;51.304;9.536;2023-09-08T01:39:50;15.55;;;10.50;;
51806;SDS011;37865;51.304;9.536;2023-09-08T01:42:16;13.50;;;9.32;;
51806;SDS011;37865;51.304;9.536;2023-09-08T01:44:41;14.70;;;10.00;;
51806;SDS011;37865;51.304;9.536;2023-09-08T01:47:07;13.65;;;10.95;;
51806;SDS011;37865;51.304;9.536;2023-09-08T01:49:32;10.18;;;9.05;;
51806;SDS011;37865;51.304;9.536;2023-09-08T01:51:57;12.23;;;10.15;;
51806;SDS011;37865;51.304;9.536;2023-09-08T01:54:22;14.57;;;10.57;;
51806;SDS011;37865;51.304;9.536;2023-09-08T01:56:48;23.17;;;11.90;;
51806;SDS011;37865;51.304;9.536;2023-09-08T01:59:13;15.02;;;8.82;;
51806;SDS011;37865;51.304;9.536;2023-09-08T02:01:38;11.20;;;9.57;;
51806;SDS011;37865;51.304;9.536;2023-09-08T02:04:05;13.38;;;10.80;;
51806;SDS011;37865;51.304;9.536;2023-09-08T02:06:30;11.63;;;9.93;;
51806;SDS011;37865;51.304;9.536;2023-09-08T02:08:56;15.45;;;10.35;;
51806;SDS011;37865;51.304;9.536;2023-09-08T02:11:21;14.88;;;10.23;;
51806;SDS011;37865;51.304;9.536;2023-09-08T02:13:46;14.63;;;11.48;;
51806;SDS011;37865;51.304;9.536;2023-09-08T02:16:15;12.20;;;9.13;;
51806;SDS011;37865;51.304;9.536;2023-09-08T02:18:41;30.02;;;9.90;;
51806;SDS011;37865;51.304;9.536;2023-09-08T02:21:10;15.25;;;10.05;;
51806;SDS011;37865;51.304;9.536;2023-09-08T02:23:36;15.18;;;11.30;;
51806;SDS011;37865;51.304;9.536;2023-09-08T02:26:02;12.48;;;11.07;;
51806;SDS011;37865;51.304;9.536;2023-09-08T02:28:28;20.27;;;9.93;;
51806;SDS011;37865;51.304;9.536;2023-09-08T02:30:53;16.85;;;12.10;;
51806;SDS011;37865;51.304;9.536;2023-09-08T02:33:19;15.27;;;11.23;;
51806;SDS011;37865;51.304;9.536;2023-09-08T02:35:44;15.18;;;11.00;;
51806;SDS011;37865;51.304;9.536;2023-09-08T02:38:10;25.00;;;11.27;;
51806;SDS011;37865;51.304;9.536;2023-09-08T02:40:35;13.88;;;11.68;;
51806;SDS011;37865;51.304;9.536;2023-09-08T02:43:01;13.48;;;10.82;;
51806;SDS011;37865;51.304;9.536;2023-09-08T02:45:26;12.70;;;11.23;;
51806;SDS011;37865;51.304;9.536;2023-09-08T02:47:52;11.82;;;10.52;;
51806;SDS011;37865;51.304;9.536;2023-09-08T02:50:17;14.77;;;10.38;;
51806;SDS011;37865;51.304;9.536;2023-09-08T02:52:43;15.38;;;10.77;;
51806;SDS011;37865;51.304;9.536;2023-09-08T02:55:09;17.63;;;11.60;;
51806;SDS011;37865;51.304;9.536;2023-09-08T02:57:34;17.20;;;12.43;;
51806;SDS011;37865;51.304;9.536;2023-09-08T02:59:59;19.83;;;9.93;;
51806;SDS011;37865;51.304;9.536;2023-09-08T03:02:25;16.67;;;12.63;;
51806;SDS011;37865;51.304;9.536;2023-09-08T03:04:50;16.60;;;12.05;;
51806;SDS011;37865;51.304;9.536;2023-09-08T03:07:16;21.80;;;13.13;;
51806;SDS011;37865;51.304;9.536;2023-09-08T03:09:41;17.00;;;12.88;;
51806;SDS011;37865;51.304;9.536;2023-09-08T03:12:06;20.95;;;13.27;;
51806;SDS011;37865;51.304;9.536;2023-09-08T03:14:32;17.70;;;12.52;;
51806;SDS011;37865;51.304;9.536;2023-09-08T03:16:57;16.02;;;13.55;;
51806;SDS011;37865;51.304;9.536;2023-09-08T03:19:22;13.88;;;11.15;;
51806;SDS011;37865;51.304;9.536;2023-09-08T03:21:48;17.80;;;13.63;;
51806;SDS011;37865;51.304;9.536;2023-09-08T03:24:13;20.10;;;13.15;;
51806;SDS011;37865;51.304;9.536;2023-09-08T03:26:38;18.10;;;12.43;;
51806;SDS011;37865;51.304;9.536;2023-09-08T03:29:05;12.52;;;11.23;;
51806;SDS011;37865;51.304;9.536;2023-09-08T03:31:31;15.82;;;12.60;;
51806;SDS011;37865;51.304;9.536;2023-09-08T03:33:56;15.85;;;10.98;;
51806;SDS011;37865;51.304;9.536;2023-09-08T03:36:22;16.67;;;11.02;;
51806;SDS011;37865;51.304;9.536;2023-09-08T03:38:47;18.35;;;11.20;;
51806;SDS011;37865;51.304;9.536;2023-09-08T03:41:12;15.27;;;11.93;;
51806;SDS011;37865;51.304;9.536;2023-09-08T03:43:38;25.77;;;11.55;;
51806;SDS011;37865;51.304;9.536;2023-09-08T03:46:03;14.05;;;11.57;;
51806;SDS011;37865;51.304;9.536;2023-09-08T03:48:29;32.58;;;13.63;;
51806;SDS011;37865;51.304;9.536;2023-09-08T03:50:54;13.45;;;11.10;;
51806;SDS011;37865;51.304;9.536;2023-09-08T03:53:19;21.05;;;11.20;;
51806;SDS011;37865;51.304;9.536;2023-09-08T03:55:45;21.58;;;12.57;;
51806;SDS011;37865;51.304;9.536;2023-09-08T03:58:10;16.70;;;12.40;;
51806;SDS011;37865;51.304;9.536;2023-09-08T04:00:35;34.15;;;13.30;;
51806;SDS011;37865;51.304;9.536;2023-09-08T04:03:02;14.90;;;12.60;;
51806;SDS011;37865;51.304;9.536;2023-09-08T04:05:27;24.65;;;13.35;;
51806;SDS011;37865;51.304;9.536;2023-09-08T04:07:53;20.55;;;13.80;;
51806;SDS011;37865;51.304;9.536;2023-09-08T04:10:18;21.90;;;12.30;;
51806;SDS011;37865;51.304;9.536;2023-09-08T04:12:43;16.65;;;12.70;;
51806;SDS011;37865;51.304;9.536;2023-09-08T04:15:09;17.85;;;13.43;;
51806;SDS011;37865;51.304;9.536;2023-09-08T04:17:35;17.30;;;12.35;;
51806;SDS011;37865;51.304;9.536;2023-09-08T04:20:04;17.73;;;13.77;;
51806;SDS011;37865;51.304;9.536;2023-09-08T04:22:31;17.20;;;12.60;;
51806;SDS011;37865;51.304;9.536;2023-09-08T04:24:57;17.40;;;11.55;;
51806;SDS011;37865;51.304;9.536;2023-09-08T04:27:22;39.72;;;13.13;;
51806;SDS011;37865;51.304;9.536;2023-09-08T04:29:48;20.58;;;13.63;;
51806;SDS011;37865;51.304;9.536;2023-09-08T04:32:13;16.55;;;12.45;;
51806;SDS011;37865;51.304;9.536;2023-09-08T04:34:39;20.67;;;13.20;;
51806;SDS011;37865;51.304;9.536;2023-09-08T04:37:05;20.02;;;14.82;;
51806;SDS011;37865;51.304;9.536;2023-09-08T04:39:31;17.85;;;14.57;;
51806;SDS011;37865;51.304;9.536;2023-09-08T04:41:56;15.07;;;10.52;;
51806;SDS011;37865;51.304;9.536;2023-09-08T04:44:22;26.25;;;15.90;;
51806;SDS011;37865;51.304;9.536;2023-09-08T04:46:47;18.52;;;14.55;;
51806;SDS011;37865;51.304;9.536;2023-09-08T04:49:13;23.52;;;16.42;;
51806;SDS011;37865;51.304;9.536;2023-09-08T04:51:38;22.23;;;17.02;;
51806;SDS011;37865;51.304;9.536;2023-09-08T04:54:04;23.25;;;15.10;;
51806;SDS011;37865;51.304;9.536;2023-09-08T04:56:29;18.77;;;16.38;;
51806;SDS011;37865;51.304;9.536;2023-09-08T04:58:55;22.30;;;16.83;;
51806;SDS011;37865;51.304;9.536;2023-09-08T05:01:20;19.58;;;14.95;;
51806;SDS011;37865;51.304;9.536;2023-09-08T05:03:46;32.35;;;14.68;;
51806;SDS011;37865;51.304;9.536;2023-09-08T05:06:11;21.83;;;14.38;;
51806;SDS011;37865;51.304;9.536;2023-09-08T05:08:38;19.27;;;14.27;;
51806;SDS011;37865;51.304;9.536;2023-09-08T05:11:04;18.77;;;14.80;;
51806;SDS011;37865;51.304;9.536;2023-09-08T05:13:29;18.10;;;15.38;;
51806;SDS011;37865;51.304;9.536;2023-09-08T05:15:55;19.15;;;15.30;;
51806;SDS011;37865;51.304;9.536;2023-09-08T05:18:25;18.17;;;13.20;;
51806;SDS011;37865;51.304;9.536;2023-09-08T05:20:51;20.55;;;14.20;;
51806;SDS011;37865;51.304;9.536;2023-09-08T05:23:17;17.60;;;13.52;;
51806;SDS011;37865;51.304;9.536;2023-09-08T05:25:42;24.52;;;13.68;;
51806;SDS011;37865;51.304;9.536;2023-09-08T05:28:07;21.83;;;14.80;;
51806;SDS011;37865;51.304;9.536;2023-09-08T05:30:33;25.27;;;13.38;;
51806;SDS011;37865;51.304;9.536;2023-09-08T05:33:00;21.10;;;15.48;;
51806;SDS011;37865;51.304;9.536;2023-09-08T05:35:25;24.67;;;15.35;;
51806;SDS011;37865;51.304;9.536;2023-09-08T05:37:50;19.23;;;14.57;;
51806;SDS011;37865;51.304;9.536;2023-09-08T05:40:15;22.13;;;15.88;;
51806;SDS011;37865;51.304;9.536;2023-09-08T05:42:41;20.05;;;15.30;;
51806;SDS011;37865;51.304;9.536;2023-09-08T05:45:06;20.33;;;15.27;;
51806;SDS011;37865;51.304;9.536;2023-09-08T05:47:32;17.42;;;15.35;;
51806;SDS011;37865;51.304;9.536;2023-09-08T05:49:57;19.90;;;16.48;;
51806;SDS011;37865;51.304;9.536;2023-09-08T05:52:22;19.00;;;16.42;;
51806;SDS011;37865;51.304;9.536;2023-09-08T05:54:47;16.27;;;14.43;;
51806;SDS011;37865;51.304;9.536;2023-09-08T05:57:13;17.45;;;15.73;;
51806;SDS011;37865;51.304;9.536;2023-09-08T05:59:38;21.02;;;17.77;;
51806;SDS011;37865;51.304;9.536;2023-09-08T06:02:04;26.70;;;17.20;;
51806;SDS011;37865;51.304;9.536;2023-09-08T06:04:29;22.67;;;15.23;;
51806;SDS011;37865;51.304;9.536;2023-09-08T06:06:57;18.08;;;16.02;;
51806;SDS011;37865;51.304;9.536;2023-09-08T06:09:22;21.45;;;15.73;;
51806;SDS011;37865;51.304;9.536;2023-09-08T06:11:47;24.85;;;18.27;;
51806;SDS011;37865;51.304;9.536;2023-09-08T06:14:13;27.38;;;17.77;;
51806;SDS011;37865;51.304;9.536;2023-09-08T06:16:38;26.10;;;18.08;;
51806;SDS011;37865;51.304;9.536;2023-09-08T06:19:04;21.80;;;17.70;;
51806;SDS011;37865;51.304;9.536;2023-09-08T06:21:30;25.17;;;17.60;;
51806;SDS011;37865;51.304;9.536;2023-09-08T06:23:55;20.27;;;16.48;;
51806;SDS011;37865;51.304;9.536;2023-09-08T06:26:20;24.67;;;18.85;;
51806;SDS011;37865;51.304;9.536;2023-09-08T06:28:46;22.55;;;18.58;;
51806;SDS011;37865;51.304;9.536;2023-09-08T06:31:12;40.33;;;17.17;;
51806;SDS011;37865;51.304;9.536;2023-09-08T06:33:39;39.38;;;17.67;;
51806;SDS011;37865;51.304;9.536;2023-09-08T06:36:05;41.30;;;16.20;;
51806;SDS011;37865;51.304;9.536;2023-09-08T06:38:31;35.63;;;16.42;;
51806;SDS011;37865;51.304;9.536;2023-09-08T06:40:56;21.25;;;14.70;;
51806;SDS011;37865;51.304;9.536;2023-09-08T06:43:22;25.02;;;15.88;;
51806;SDS011;37865;51.304;9.536;2023-09-08T06:45:50;34.97;;;17.08;;
51806;SDS011;37865;51.304;9.536;2023-09-08T06:48:15;25.92;;;14.20;;
51806;SDS011;37865;51.304;9.536;2023-09-08T06:50:41;28.02;;;16.08;;
51806;SDS011;37865;51.304;9.536;2023-09-08T06:53:06;25.83;;;15.40;;
51806;SDS011;37865;51.304;9.536;2023-09-08T06:55:32;27.00;;;15.18;;
51806;SDS011;37865;51.304;9.536;2023-09-08T06:57:57;31.75;;;14.82;;
51806;SDS011;37865;51.304;9.536;2023-09-08T07:00:23;20.23;;;14.27;;
51806;SDS011;37865;51.304;9.536;2023-09-08T07:02:48;20.77;;;14.40;;
51806;SDS011;37865;51.304;9.536;2023-09-08T07:05:16;17.98;;;13.13;;
51806;SDS011;37865;51.304;9.536;2023-09-08T07:07:42;24.33;;;14.00;;
51806;SDS011;37865;51.304;9.536;2023-09-08T07:10:07;15.82;;;13.57;;
51806;SDS011;37865;51.304;9.536;2023-09-08T07:12:33;35.40;;;15.80;;
51806;SDS011;37865;51.304;9.536;2023-09-08T07:14:59;25.73;;;15.00;;
51806;SDS011;37865;51.304;9.536;2023-09-08T07:17:25;25.70;;;13.57;;
51806;SDS011;37865;51.304;9.536;2023-09-08T07:19:50;20.95;;;13.88;;
51806;SDS011;37865;51.304;9.536;2023-09-08T07:22:16;25.63;;;14.50;;
51806;SDS011;37865;51.304;9.536;2023-09-08T07:24:41;21.48;;;11.98;;
51806;SDS011;37865;51.304;9.536;2023-09-08T07:27:07;19.73;;;11.38;;
51806;SDS011;37865;51.304;9.536;2023-09-08T07:29:32;16.30;;;13.02;;
51806;SDS011;37865;51.304;9.536;2023-09-08T07:31:58;23.30;;;13.52;;
51806;SDS011;37865;51.304;9.536;2023-09-08T07:34:23;24.00;;;13.70;;
51806;SDS011;37865;51.304;9.536;2023-09-08T07:36:49;15.82;;;13.27;;
51806;SDS011;37865;51.304;9.536;2023-09-08T07:39:14;16.52;;;12.73;;
51806;SDS011;37865;51.304;9.536;2023-09-08T07:41:39;21.98;;;15.25;;
51806;SDS011;37865;51.304;9.536;2023-09-08T07:44:05;21.08;;;13.43;;
51806;SDS011;37865;51.304;9.536;2023-09-08T07:46:34;24.83;;;15.23;;
51806;SDS011;37865;51.304;9.536;2023-09-08T07:48:59;25.73;;;13.18;;
51806;SDS011;37865;51.304;9.536;2023-09-08T07:51:25;14.90;;;12.75;;
51806;SDS011;37865;51.304;9.536;2023-09-08T07:53:53;21.33;;;13.25;;
51806;SDS011;37865;51.304;9.536;2023-09-08T07:56:18;21.65;;;13.30;;
51806;SDS011;37865;51.304;9.536;2023-09-08T07:58:44;21.58;;;14.82;;
51806;SDS011;37865;51.304;9.536;2023-09-08T08:01:09;18.08;;;12.90;;
51806;SDS011;37865;51.304;9.536;2023-09-08T08:03:34;17.63;;;12.57;;
51806;SDS011;37865;51.304;9.536;2023-09-08T08:06:00;20.58;;;12.88;;
51806;SDS011;37865;51.304;9.536;2023-09-08T08:08:26;24.20;;;13.60;;
51806;SDS011;37865;51.304;9.536;2023-09-08T08:10:51;24.05;;;12.00;;
51806;SDS011;37865;51.304;9.536;2023-09-08T08:13:16;15.82;;;11.90;;
51806;SDS011;37865;51.304;9.536;2023-09-08T08:15:42;25.05;;;12.75;;
51806;SDS011;37865;51.304;9.536;2023-09-08T08:18:12;29.48;;;11.57;;
51806;SDS011;37865;51.304;9.536;2023-09-08T08:20:37;12.55;;;11.13;;
51806;SDS011;37865;51.304;9.536;2023-09-08T08:23:03;13.57;;;10.75;;
51806;SDS011;37865;51.304;9.536;2023-09-08T08:25:29;12.85;;;10.23;;
51806;SDS011;37865;51.304;9.536;2023-09-08T08:27:55;17.30;;;10.77;;
51806;SDS011;37865;51.304;9.536;2023-09-08T08:30:23;13.02;;;9.85;;
51806;SDS011;37865;51.304;9.536;2023-09-08T08:32:48;15.50;;;10.52;;
51806;SDS011;37865;51.304;9.536;2023-09-08T08:35:16;17.65;;;9.35;;
51806;SDS011;37865;51.304;9.536;2023-09-08T08:37:41;24.83;;;12.10;;
51806;SDS011;37865;51.304;9.536;2023-09-08T08:40:08;25.73;;;10.55;;
51806;SDS011;37865;51.304;9.536;2023-09-08T08:42:36;11.32;;;8.52;;
51806;SDS011;37865;51.304;9.536;2023-09-08T08:45:01;12.38;;;9.85;;
51806;SDS011;37865;51.304;9.536;2023-09-08T08:47:28;11.55;;;7.75;;
51806;SDS011;37865;51.304;9.536;2023-09-08T08:49:57;11.07;;;8.18;;
51806;SDS011;37865;51.304;9.536;2023-09-08T08:52:23;17.90;;;9.93;;
51806;SDS011;37865;51.304;9.536;2023-09-08T08:54:50;10.88;;;8.82;;
51806;SDS011;37865;51.304;9.536;2023-09-08T08:57:15;23.13;;;10.93;;
51806;SDS011;37865;51.304;9.536;2023-09-08T08:59:41;16.98;;;10.00;;
51806;SDS011;37865;51.304;9.536;2023-09-08T09:02:06;22.75;;;9.60;;
51806;SDS011;37865;51.304;9.536;2023-09-08T09:04:33;11.85;;;8.20;;
51806;SDS011;37865;51.304;9.536;2023-09-08T09:07:01;12.45;;;8.50;;
51806;SDS011;37865;51.304;9.536;2023-09-08T09:09:27;21.15;;;11.25;;
51806;SDS011;37865;51.304;9.536;2023-09-08T09:11:53;24.55;;;9.05;;
51806;SDS011;37865;51.304;9.536;2023-09-08T09:14:19;14.32;;;7.97;;
51806;SDS011;37865;51.304;9.536;2023-09-08T09:16:44;13.52;;;8.65;;
51806;SDS011;37865;51.304;9.536;2023-09-08T09:19:17;18.73;;;8.27;;
51806;SDS011;37865;51.304;9.536;2023-09-08T09:21:50;20.85;;;8.23;;
51806;SDS011;37865;51.304;9.536;2023-09-08T09:24:29;25.05;;;7.50;;
51806;SDS011;37865;51.304;9.536;2023-09-08T09:26:55;16.77;;;7.82;;
51806;SDS011;37865;51.304;9.536;2023-09-08T09:29:20;9.57;;;7.35;;
51806;SDS011;37865;51.304;9.536;2023-09-08T09:31:56;10.25;;;7.47;;
51806;SDS011;37865;51.304;9.536;2023-09-08T09:34:24;27.77;;;8.15;;
51806;SDS011;37865;51.304;9.536;2023-09-08T09:36:50;9.35;;;6.60;;
51806;SDS011;37865;51.304;9.536;2023-09-08T09:39:17;12.80;;;7.00;;
51806;SDS011;37865;51.304;9.536;2023-09-08T09:41:46;8.13;;;6.43;;
51806;SDS011;37865;51.304;9.536;2023-09-08T09:44:13;9.57;;;6.75;;
51806;SDS011;37865;51.304;9.536;2023-09-08T09:46:42;14.40;;;6.32;;
51806;SDS011;37865;51.304;9.536;2023-09-08T09:49:10;6.43;;;5.57;;
51806;SDS011;37865;51.304;9.536;2023-09-08T09:51:48;10.77;;;5.93;;
51806;SDS011;37865;51.304;9.536;2023-09-08T09:54:15;9.18;;;6.95;;
51806;SDS011;37865;51.304;9.536;2023-09-08T09:56:41;14.85;;;5.47;;
51806;SDS011;37865;51.304;9.536;2023-09-08T09:59:08;10.73;;;6.40;;
51806;SDS011;37865;51.304;9.536;2023-09-08T10:01:35;14.80;;;6.15;;
51806;SDS011;37865;51.304;9.536;2023-09-08T10:04:00;15.77;;;7.05;;
51806;SDS011;37865;51.304;9.536;2023-09-08T10:06:28;16.48;;;6.68;;
51806;SDS011;37865;51.304;9.536;2023-09-08T10:08:56;9.40;;;6.32;;
51806;SDS011;37865;51.304;9.536;2023-09-08T10:11:24;16.17;;;6.47;;
51806;SDS011;37865;51.304;9.536;2023-09-08T10:13:53;10.43;;;7.20;;
51806;SDS011;37865;51.304;9.536;2023-09-08T10:16:23;9.02;;;7.32;;
51806;SDS011;37865;51.304;9.536;2023-09-08T10:18:51;10.18;;;6.78;;
51806;SDS011;37865;51.304;9.536;2023-09-08T10:21:17;10.85;;;6.60;;
51806;SDS011;37865;51.304;9.536;2023-09-08T10:23:49;11.43;;;5.45;;
51806;SDS011;37865;51.304;9.536;2023-09-08T10:26:20;12.82;;;7.10;;
51806;SDS011;37865;51.304;9.536;2023-09-08T10:28:50;7.07;;;5.72;;
51806;SDS011;37865;51.304;9.536;2023-09-08T10:31:16;13.35;;;5.15;;
51806;SDS011;37865;51.304;9.536;2023-09-08T10:33:42;11.02;;;9.63;;
51806;SDS011;37865;51.304;9.536;2023-09-08T10:36:08;17.55;;;4.68;;
51806;SDS011;37865;51.304;9.536;2023-09-08T10:38:34;4.85;;;4.28;;
51806;SDS011;37865;51.304;9.536;2023-09-08T10:43:44;19.48;;;4.45;;
51806;SDS011;37865;51.304;9.536;2023-09-08T10:46:10;6.88;;;4.53;;
51806;SDS011;37865;51.304;9.536;2023-09-08T10:48:45;6.93;;;5.38;;
51806;SDS011;37865;51.304;9.536;2023-09-08T10:51:14;7.78;;;4.68;;
51806;SDS011;37865;51.304;9.536;2023-09-08T10:53:42;5.13;;;4.63;;
51806;SDS011;37865;51.304;9.536;2023-09-08T10:56:11;7.95;;;4.72;;
51806;SDS011;37865;51.304;9.536;2023-09-08T10:58:36;6.15;;;4.32;;
51806;SDS011;37865;51.304;9.536;2023-09-08T11:01:04;5.65;;;4.40;;
51806;SDS011;37865;51.304;9.536;2023-09-08T11:06:01;6.07;;;4.57;;
51806;SDS011;37865;51.304;9.536;2023-09-08T11:08:28;4.93;;;4.45;;
51806;SDS011;37865;51.304;9.536;2023-09-08T11:10:53;7.93;;;4.57;;
51806;SDS011;37865;51.304;9.536;2023-09-08T11:13:20;16.50;;;4.97;;
51806;SDS011;37865;51.304;9.536;2023-09-08T11:15:45;4.97;;;4.47;;
51806;SDS011;37865;51.304;9.536;2023-09-08T11:18:10;5.40;;;4.72;;
51806;SDS011;37865;51.304;9.536;2023-09-08T11:20:36;25.15;;;5.53;;
51806;SDS011;37865;51.304;9.536;2023-09-08T11:23:01;7.90;;;4.97;;
51806;SDS011;37865;51.304;9.536;2023-09-08T11:25:26;4.65;;;3.88;;
51806;SDS011;37865;51.304;9.536;2023-09-08T11:27:53;8.88;;;5.03;;
51806;SDS011;37865;51.304;9.536;2023-09-08T11:30:19;5.45;;;4.75;;
51806;SDS011;37865;51.304;9.536;2023-09-08T11:32:45;4.85;;;4.45;;
51806;SDS011;37865;51.304;9.536;2023-09-08T11:35:11;5.88;;;4.82;;
51806;SDS011;37865;51.304;9.536;2023-09-08T11:37:39;6.47;;;5.50;;
51806;SDS011;37865;51.304;9.536;2023-09-08T11:40:06;6.57;;;4.68;;
51806;SDS011;37865;51.304;9.536;2023-09-08T11:47:39;5.68;;;4.07;;
51806;SDS011;37865;51.304;9.536;2023-09-08T11:50:10;5.43;;;4.90;;
51806;SDS011;37865;51.304;9.536;2023-09-08T11:52:46;6.30;;;4.93;;
51806;SDS011;37865;51.304;9.536;2023-09-08T11:55:12;7.85;;;4.80;;
51806;SDS011;37865;51.304;9.536;2023-09-08T11:57:39;5.88;;;4.50;;
51806;SDS011;37865;51.304;9.536;2023-09-08T12:00:05;8.43;;;4.00;;
51806;SDS011;37865;51.304;9.536;2023-09-08T12:02:35;5.30;;;4.20;;
51806;SDS011;37865;51.304;9.536;2023-09-08T12:05:02;12.68;;;4.38;;
51806;SDS011;37865;51.304;9.536;2023-09-08T12:07:28;6.25;;;4.60;;
51806;SDS011;37865;51.304;9.536;2023-09-08T12:09:53;5.70;;;4.63;;
51806;SDS011;37865;51.304;9.536;2023-09-08T12:12:19;6.88;;;5.22;;
51806;SDS011;37865;51.304;9.536;2023-09-08T12:14:44;17.08;;;4.93;;
51806;SDS011;37865;51.304;9.536;2023-09-08T12:17:09;5.93;;;4.50;;
51806;SDS011;37865;51.304;9.536;2023-09-08T12:19:35;5.00;;;4.50;;
51806;SDS011;37865;51.304;9.536;2023-09-08T12:22:02;4.47;;;4.07;;
51806;SDS011;37865;51.304;9.536;2023-09-08T12:27:21;9.48;;;4.93;;
51806;SDS011;37865;51.304;9.536;2023-09-08T12:32:23;6.43;;;4.70;;
51806;SDS011;37865;51.304;9.536;2023-09-08T12:34:50;9.85;;;4.20;;
51806;SDS011;37865;51.304;9.536;2023-09-08T12:37:19;5.55;;;4.28;;
51806;SDS011;37865;51.304;9.536;2023-09-08T12:39:48;4.40;;;3.47;;
51806;SDS011;37865;51.304;9.536;2023-09-08T12:42:14;7.82;;;3.22;;
51806;SDS011;37865;51.304;9.536;2023-09-08T12:44:39;4.47;;;4.07;;
51806;SDS011;37865;51.304;9.536;2023-09-08T12:47:05;4.40;;;4.00;;
51806;SDS011;37865;51.304;9.536;2023-09-08T12:49:31;6.38;;;3.97;;
51806;SDS011;37865;51.304;9.536;2023-09-08T12:51:56;5.17;;;4.47;;
51806;SDS011;37865;51.304;9.536;2023-09-08T12:54:21;7.43;;;3.37;;
51806;SDS011;37865;51.304;9.536;2023-09-08T12:56:47;4.75;;;4.30;;
51806;SDS011;37865;51.304;9.536;2023-09-08T12:59:12;4.90;;;4.50;;
51806;SDS011;37865;51.304;9.536;2023-09-08T13:01:37;8.10;;;3.78;;
51806;SDS011;37865;51.304;9.536;2023-09-08T13:04:03;8.52;;;3.72;;
51806;SDS011;37865;51.304;9.536;2023-09-08T13:06:28;4.53;;;3.40;;
51806;SDS011;37865;51.304;9.536;2023-09-08T13:08:54;4.07;;;3.70;;
51806;SDS011;37865;51.304;9.536;2023-09-08T13:11:19;6.07;;;3.95;;
51806;SDS011;37865;51.304;9.536;2023-09-08T13:13:44;5.07;;;3.63;;
51806;SDS011;37865;51.304;9.536;2023-09-08T13:16:10;4.80;;;3.63;;
51806;SDS011;37865;51.304;9.536;2023-09-08T13:18:35;8.63;;;5.03;;
51806;SDS011;37865;51.304;9.536;2023-09-08T13:21:03;6.13;;;3.88;;
51806;SDS011;37865;51.304;9.536;2023-09-08T13:23:29;7.40;;;3.63;;
51806;SDS011;37865;51.304;9.536;2023-09-08T13:25:54;4.75;;;4.10;;
51806;SDS011;37865;51.304;9.536;2023-09-08T13:28:20;9.55;;;4.90;;
51806;SDS011;37865;51.304;9.536;2023-09-08T13:30:45;4.85;;;4.45;;
51806;SDS011;37865;51.304;9.536;2023-09-08T13:33:10;4.53;;;4.07;;
51806;SDS011;37865;51.304;9.536;2023-09-08T13:35:36;14.10;;;3.63;;
51806;SDS011;37865;51.304;9.536;2023-09-08T13:38:01;9.10;;;3.90;;
51806;SDS011;37865;51.304;9.536;2023-09-08T13:40:28;5.13;;;3.63;;
51806;SDS011;37865;51.304;9.536;2023-09-08T13:42:53;9.07;;;3.97;;
51806;SDS011;37865;51.304;9.536;2023-09-08T13:45:18;4.37;;;3.97;;
51806;SDS011;37865;51.304;9.536;2023-09-08T13:47:44;3.73;;;3.43;;
51806;SDS011;37865;51.304;9.536;2023-09-08T13:50:09;6.13;;;4.20;;
51806;SDS011;37865;51.304;9.536;2023-09-08T13:52:34;6.33;;;4.23;;
51806;SDS011;37865;51.304;9.536;2023-09-08T13:55:00;6.25;;;4.22;;
51806;SDS011;37865;51.304;9.536;2023-09-08T13:57:25;10.07;;;4.07;;
51806;SDS011;37865;51.304;9.536;2023-09-08T13:59:51;12.18;;;5.28;;
51806;SDS011;37865;51.304;9.536;2023-09-08T14:02:19;12.48;;;4.18;;
51806;SDS011;37865;51.304;9.536;2023-09-08T14:04:44;6.70;;;4.65;;
51806;SDS011;37865;51.304;9.536;2023-09-08T14:07:10;4.03;;;3.67;;
51806;SDS011;37865;51.304;9.536;2023-09-08T14:09:35;8.73;;;4.55;;
51806;SDS011;37865;51.304;9.536;2023-09-08T14:12:01;7.00;;;4.20;;
51806;SDS011;37865;51.304;9.536;2023-09-08T14:14:26;4.60;;;4.18;;
51806;SDS011;37865;51.304;9.536;2023-09-08T14:16:52;6.20;;;3.85;;
51806;SDS011;37865;51.304;9.536;2023-09-08T14:19:17;5.00;;;3.40;;
51806;SDS011;37865;51.304;9.536;2023-09-08T14:21:43;4.60;;;3.90;;
51806;SDS011;37865;51.304;9.536;2023-09-08T14:24:08;5.10;;;2.93;;
51806;SDS011;37865;51.304;9.536;2023-09-08T14:26:33;3.77;;;3.47;;
51806;SDS011;37865;51.304;9.536;2023-09-08T14:28:59;6.97;;;3.67;;
51806;SDS011;37865;51.304;9.536;2023-09-08T14:31:25;6.68;;;3.15;;
51806;SDS011;37865;51.304;9.536;2023-09-08T14:33:50;5.30;;;3.88;;
51806;SDS011;37865;51.304;9.536;2023-09-08T14:36:16;10.65;;;3.85;;
51806;SDS011;37865;51.304;9.536;2023-09-08T14:38:43;7.00;;;3.58;;
51806;SDS011;37865;51.304;9.536;2023-09-08T14:41:08;4.32;;;3.92;;
51806;SDS011;37865;51.304;9.536;2023-09-08T14:43:34;3.27;;;2.97;;